sensor_id;sensor_type;location;lat;lon;timestamp;P1;durP1;ratioP1;P2;durP2;ratioP2
35891;SDS011;21993;42.672;23.296;2023-02-01T00:01:37;8.43;;;4.50;;
35891;SDS011;21993;42.672;23.296;2023-02-01T00:04:02;5.10;;;4.47;;
35891;SDS011;21993;42.672;23.296;2023-02-01T00:06:28;5.83;;;4.30;;
35891;SDS011;21993;42.672;23.296;2023-02-01T00:08:53;5.00;;;4.50;;
35891;SDS011;21993;42.672;23.296;2023-02-01T00:11:20;5.73;;;4.77;;
35891;SDS011;21993;42.672;23.296;2023-02-01T00:13:46;6.70;;;4.93;;
35891;SDS011;21993;42.672;23.296;2023-02-01T00:16:13;5.00;;;4.50;;
35891;SDS011;21993;42.672;23.296;2023-02-01T00:18:42;6.57;;;5.27;;
35891;SDS011;21993;42.672;23.296;2023-02-01T00:21:12;5.13;;;4.40;;
35891;SDS011;21993;42.672;23.296;2023-02-01T00:23:39;5.73;;;4.67;;
35891;SDS011;21993;42.672;23.296;2023-02-01T00:26:06;8.77;;;4.80;;
35891;SDS011;21993;42.672;23.296;2023-02-01T00:28:33;5.83;;;4.57;;
35891;SDS011;21993;42.672;23.296;2023-02-01T00:30:59;4.67;;;4.13;;
35891;SDS011;21993;42.672;23.296;2023-02-01T00:33:26;5.20;;;4.50;;
35891;SDS011;21993;42.672;23.296;2023-02-01T00:35:55;5.37;;;4.43;;
35891;SDS011;21993;42.672;23.296;2023-02-01T00:38:26;6.40;;;4.83;;
35891;SDS011;21993;42.672;23.296;2023-02-01T00:40:51;7.47;;;4.50;;
35891;SDS011;21993;42.672;23.296;2023-02-01T00:43:17;5.60;;;4.27;;
35891;SDS011;21993;42.672;23.296;2023-02-01T00:45:42;5.33;;;3.83;;
35891;SDS011;21993;42.672;23.296;2023-02-01T00:48:08;6.00;;;4.37;;
35891;SDS011;21993;42.672;23.296;2023-02-01T00:50:33;4.67;;;4.17;;
35891;SDS011;21993;42.672;23.296;2023-02-01T00:52:59;7.37;;;4.00;;
35891;SDS011;21993;42.672;23.296;2023-02-01T00:55:24;7.20;;;4.30;;
35891;SDS011;21993;42.672;23.296;2023-02-01T00:57:50;6.17;;;4.30;;
35891;SDS011;21993;42.672;23.296;2023-02-01T01:00:16;4.40;;;4.00;;
35891;SDS011;21993;42.672;23.296;2023-02-01T01:02:42;5.40;;;4.00;;
35891;SDS011;21993;42.672;23.296;2023-02-01T01:05:08;4.40;;;4.00;;
35891;SDS011;21993;42.672;23.296;2023-02-01T01:07:33;7.17;;;4.30;;
35891;SDS011;21993;42.672;23.296;2023-02-01T01:09:58;5.23;;;3.93;;
35891;SDS011;21993;42.672;23.296;2023-02-01T01:12:24;4.23;;;3.60;;
35891;SDS011;21993;42.672;23.296;2023-02-01T01:14:49;4.33;;;3.97;;
35891;SDS011;21993;42.672;23.296;2023-02-01T01:17:16;4.20;;;3.60;;
35891;SDS011;21993;42.672;23.296;2023-02-01T01:19:41;3.40;;;3.10;;
35891;SDS011;21993;42.672;23.296;2023-02-01T01:22:06;3.70;;;3.40;;
35891;SDS011;21993;42.672;23.296;2023-02-01T01:24:32;4.23;;;3.60;;
35891;SDS011;21993;42.672;23.296;2023-02-01T01:26:57;7.23;;;3.43;;
35891;SDS011;21993;42.672;23.296;2023-02-01T01:29:22;4.37;;;3.60;;
35891;SDS011;21993;42.672;23.296;2023-02-01T01:31:48;3.90;;;3.30;;
35891;SDS011;21993;42.672;23.296;2023-02-01T01:34:13;6.63;;;3.40;;
35891;SDS011;21993;42.672;23.296;2023-02-01T01:36:39;3.70;;;3.33;;
35891;SDS011;21993;42.672;23.296;2023-02-01T01:39:04;3.77;;;3.27;;
35891;SDS011;21993;42.672;23.296;2023-02-01T01:41:30;4.13;;;3.73;;
35891;SDS011;21993;42.672;23.296;2023-02-01T01:43:57;6.07;;;3.30;;
35891;SDS011;21993;42.672;23.296;2023-02-01T01:46:41;3.80;;;3.40;;
35891;SDS011;21993;42.672;23.296;2023-02-01T01:51:57;4.07;;;3.67;;
35891;SDS011;21993;42.672;23.296;2023-02-01T01:54:27;5.40;;;3.10;;
35891;SDS011;21993;42.672;23.296;2023-02-01T01:56:55;4.00;;;3.47;;
35891;SDS011;21993;42.672;23.296;2023-02-01T01:59:24;3.27;;;2.97;;
35891;SDS011;21993;42.672;23.296;2023-02-01T02:01:50;4.73;;;3.40;;
35891;SDS011;21993;42.672;23.296;2023-02-01T02:04:17;5.27;;;3.33;;
35891;SDS011;21993;42.672;23.296;2023-02-01T02:06:45;4.10;;;3.20;;
35891;SDS011;21993;42.672;23.296;2023-02-01T02:09:16;6.63;;;3.90;;
35891;SDS011;21993;42.672;23.296;2023-02-01T02:11:42;5.37;;;3.77;;
35891;SDS011;21993;42.672;23.296;2023-02-01T02:14:09;5.47;;;3.73;;
35891;SDS011;21993;42.672;23.296;2023-02-01T02:23:09;5.70;;;3.20;;
35891;SDS011;21993;42.672;23.296;2023-02-01T02:34:37;5.47;;;3.10;;
35891;SDS011;21993;42.672;23.296;2023-02-01T02:38:01;4.00;;;3.57;;
35891;SDS011;21993;42.672;23.296;2023-02-01T02:49:01;5.07;;;3.47;;
35891;SDS011;21993;42.672;23.296;2023-02-01T02:54:15;6.33;;;3.27;;
35891;SDS011;21993;42.672;23.296;2023-02-01T02:57:03;4.73;;;3.20;;
35891;SDS011;21993;42.672;23.296;2023-02-01T02:59:52;3.00;;;2.70;;
35891;SDS011;21993;42.672;23.296;2023-02-01T03:02:37;4.70;;;3.10;;
35891;SDS011;21993;42.672;23.296;2023-02-01T03:05:21;3.33;;;2.87;;
35891;SDS011;21993;42.672;23.296;2023-02-01T03:08:04;4.87;;;2.80;;
35891;SDS011;21993;42.672;23.296;2023-02-01T03:10:38;3.57;;;2.90;;
35891;SDS011;21993;42.672;23.296;2023-02-01T03:13:06;4.00;;;2.57;;
35891;SDS011;21993;42.672;23.296;2023-02-01T03:16:00;3.43;;;2.60;;
35891;SDS011;21993;42.672;23.296;2023-02-01T03:18:41;4.60;;;3.00;;
35891;SDS011;21993;42.672;23.296;2023-02-01T03:21:16;3.90;;;2.83;;
35891;SDS011;21993;42.672;23.296;2023-02-01T03:23:46;3.90;;;2.80;;
35891;SDS011;21993;42.672;23.296;2023-02-01T03:26:14;3.00;;;2.70;;
35891;SDS011;21993;42.672;23.296;2023-02-01T03:28:48;2.80;;;2.60;;
35891;SDS011;21993;42.672;23.296;2023-02-01T03:31:20;5.33;;;2.70;;
35891;SDS011;21993;42.672;23.296;2023-02-01T03:33:46;4.13;;;3.00;;
35891;SDS011;21993;42.672;23.296;2023-02-01T03:36:15;3.20;;;2.90;;
35891;SDS011;21993;42.672;23.296;2023-02-01T03:44:29;4.57;;;2.63;;
35891;SDS011;21993;42.672;23.296;2023-02-01T03:47:02;3.70;;;2.57;;
35891;SDS011;21993;42.672;23.296;2023-02-01T03:49:33;5.33;;;2.87;;
35891;SDS011;21993;42.672;23.296;2023-02-01T03:52:02;2.47;;;2.30;;
35891;SDS011;21993;42.672;23.296;2023-02-01T03:54:30;2.70;;;2.50;;
35891;SDS011;21993;42.672;23.296;2023-02-01T03:56:57;2.80;;;2.40;;
35891;SDS011;21993;42.672;23.296;2023-02-01T03:59:26;4.70;;;2.90;;
35891;SDS011;21993;42.672;23.296;2023-02-01T04:01:51;4.00;;;2.53;;
35891;SDS011;21993;42.672;23.296;2023-02-01T04:04:17;2.83;;;2.53;;
35891;SDS011;21993;42.672;23.296;2023-02-01T04:06:47;4.33;;;3.00;;
35891;SDS011;21993;42.672;23.296;2023-02-01T04:09:12;4.80;;;3.20;;
35891;SDS011;21993;42.672;23.296;2023-02-01T04:11:38;3.20;;;2.90;;
35891;SDS011;21993;42.672;23.296;2023-02-01T04:14:03;4.10;;;3.17;;
35891;SDS011;21993;42.672;23.296;2023-02-01T04:16:30;5.00;;;2.80;;
35891;SDS011;21993;42.672;23.296;2023-02-01T04:18:56;3.63;;;2.80;;
35891;SDS011;21993;42.672;23.296;2023-02-01T04:21:23;3.57;;;3.00;;
35891;SDS011;21993;42.672;23.296;2023-02-01T04:23:49;3.77;;;2.90;;
35891;SDS011;21993;42.672;23.296;2023-02-01T04:26:15;4.07;;;3.07;;
35891;SDS011;21993;42.672;23.296;2023-02-01T04:28:41;4.13;;;2.83;;
35891;SDS011;21993;42.672;23.296;2023-02-01T04:31:07;4.23;;;3.17;;
35891;SDS011;21993;42.672;23.296;2023-02-01T04:33:32;4.63;;;3.30;;
35891;SDS011;21993;42.672;23.296;2023-02-01T04:35:58;5.37;;;3.50;;
35891;SDS011;21993;42.672;23.296;2023-02-01T04:38:23;5.03;;;3.13;;
35891;SDS011;21993;42.672;23.296;2023-02-01T04:40:49;6.60;;;3.40;;
35891;SDS011;21993;42.672;23.296;2023-02-01T04:43:15;7.83;;;3.83;;
35891;SDS011;21993;42.672;23.296;2023-02-01T04:45:41;5.37;;;4.20;;
35891;SDS011;21993;42.672;23.296;2023-02-01T04:48:06;4.67;;;3.63;;
35891;SDS011;21993;42.672;23.296;2023-02-01T04:50:32;4.60;;;3.87;;
35891;SDS011;21993;42.672;23.296;2023-02-01T04:52:57;4.87;;;3.67;;
35891;SDS011;21993;42.672;23.296;2023-02-01T04:55:23;4.77;;;4.10;;
35891;SDS011;21993;42.672;23.296;2023-02-01T04:57:48;7.33;;;3.93;;
35891;SDS011;21993;42.672;23.296;2023-02-01T05:00:13;6.17;;;4.10;;
35891;SDS011;21993;42.672;23.296;2023-02-01T05:02:39;5.87;;;3.67;;
35891;SDS011;21993;42.672;23.296;2023-02-01T05:05:05;6.43;;;4.33;;
35891;SDS011;21993;42.672;23.296;2023-02-01T05:07:30;6.30;;;4.27;;
35891;SDS011;21993;42.672;23.296;2023-02-01T05:09:56;8.40;;;4.30;;
35891;SDS011;21993;42.672;23.296;2023-02-01T05:12:21;6.40;;;3.80;;
35891;SDS011;21993;42.672;23.296;2023-02-01T05:15:05;5.47;;;4.20;;
35891;SDS011;21993;42.672;23.296;2023-02-01T05:17:31;4.47;;;3.80;;
35891;SDS011;21993;42.672;23.296;2023-02-01T05:19:57;7.67;;;4.43;;
35891;SDS011;21993;42.672;23.296;2023-02-01T05:22:22;4.97;;;4.00;;
35891;SDS011;21993;42.672;23.296;2023-02-01T05:24:47;5.40;;;4.00;;
35891;SDS011;21993;42.672;23.296;2023-02-01T05:27:13;8.40;;;4.43;;
35891;SDS011;21993;42.672;23.296;2023-02-01T05:29:38;6.70;;;3.90;;
35891;SDS011;21993;42.672;23.296;2023-02-01T05:32:04;5.83;;;4.10;;
35891;SDS011;21993;42.672;23.296;2023-02-01T05:34:29;5.33;;;4.27;;
35891;SDS011;21993;42.672;23.296;2023-02-01T05:36:55;6.03;;;4.43;;
35891;SDS011;21993;42.672;23.296;2023-02-01T05:39:20;5.40;;;4.30;;
35891;SDS011;21993;42.672;23.296;2023-02-01T05:41:45;5.17;;;4.07;;
35891;SDS011;21993;42.672;23.296;2023-02-01T05:44:11;4.83;;;4.27;;
35891;SDS011;21993;42.672;23.296;2023-02-01T05:46:36;9.33;;;4.83;;
35891;SDS011;21993;42.672;23.296;2023-02-01T05:49:02;6.33;;;4.63;;
35891;SDS011;21993;42.672;23.296;2023-02-01T05:51:28;6.67;;;4.60;;
35891;SDS011;21993;42.672;23.296;2023-02-01T05:53:54;8.77;;;5.40;;
35891;SDS011;21993;42.672;23.296;2023-02-01T05:56:19;5.00;;;3.73;;
35891;SDS011;21993;42.672;23.296;2023-02-01T05:58:45;4.93;;;4.10;;
35891;SDS011;21993;42.672;23.296;2023-02-01T06:01:10;7.37;;;4.37;;
35891;SDS011;21993;42.672;23.296;2023-02-01T06:03:36;7.93;;;4.27;;
35891;SDS011;21993;42.672;23.296;2023-02-01T06:06:01;7.57;;;4.60;;
35891;SDS011;21993;42.672;23.296;2023-02-01T06:08:27;5.80;;;3.33;;
35891;SDS011;21993;42.672;23.296;2023-02-01T06:11:02;3.93;;;3.33;;
35891;SDS011;21993;42.672;23.296;2023-02-01T06:13:29;6.47;;;3.57;;
35891;SDS011;21993;42.672;23.296;2023-02-01T06:15:55;4.90;;;4.30;;
35891;SDS011;21993;42.672;23.296;2023-02-01T06:18:22;7.47;;;3.60;;
35891;SDS011;21993;42.672;23.296;2023-02-01T06:20:55;6.80;;;3.97;;
35891;SDS011;21993;42.672;23.296;2023-02-01T06:23:21;8.83;;;4.27;;
35891;SDS011;21993;42.672;23.296;2023-02-01T06:25:52;4.70;;;3.77;;
35891;SDS011;21993;42.672;23.296;2023-02-01T06:28:23;4.67;;;3.23;;
35891;SDS011;21993;42.672;23.296;2023-02-01T06:30:48;5.67;;;3.70;;
35891;SDS011;21993;42.672;23.296;2023-02-01T06:33:14;8.67;;;3.50;;
35891;SDS011;21993;42.672;23.296;2023-02-01T06:35:42;6.50;;;4.20;;
35891;SDS011;21993;42.672;23.296;2023-02-01T06:38:12;7.57;;;4.07;;
35891;SDS011;21993;42.672;23.296;2023-02-01T06:40:38;5.70;;;3.73;;
35891;SDS011;21993;42.672;23.296;2023-02-01T06:43:04;7.03;;;4.20;;
35891;SDS011;21993;42.672;23.296;2023-02-01T06:45:30;6.87;;;4.20;;
35891;SDS011;21993;42.672;23.296;2023-02-01T06:47:55;5.73;;;4.20;;
35891;SDS011;21993;42.672;23.296;2023-02-01T06:50:21;7.17;;;4.43;;
35891;SDS011;21993;42.672;23.296;2023-02-01T06:52:46;9.30;;;4.67;;
35891;SDS011;21993;42.672;23.296;2023-02-01T06:55:12;10.53;;;4.20;;
35891;SDS011;21993;42.672;23.296;2023-02-01T06:57:38;11.27;;;4.20;;
35891;SDS011;21993;42.672;23.296;2023-02-01T07:00:04;4.60;;;4.10;;
35891;SDS011;21993;42.672;23.296;2023-02-01T07:02:30;6.30;;;4.20;;
35891;SDS011;21993;42.672;23.296;2023-02-01T07:04:55;6.50;;;3.83;;
35891;SDS011;21993;42.672;23.296;2023-02-01T07:07:21;8.53;;;3.93;;
35891;SDS011;21993;42.672;23.296;2023-02-01T07:09:47;5.07;;;3.93;;
35891;SDS011;21993;42.672;23.296;2023-02-01T07:12:14;5.50;;;3.23;;
35891;SDS011;21993;42.672;23.296;2023-02-01T07:14:39;6.13;;;3.93;;
35891;SDS011;21993;42.672;23.296;2023-02-01T07:17:04;6.23;;;3.10;;
35891;SDS011;21993;42.672;23.296;2023-02-01T07:19:30;10.67;;;3.77;;
35891;SDS011;21993;42.672;23.296;2023-02-01T07:21:55;4.97;;;3.07;;
35891;SDS011;21993;42.672;23.296;2023-02-01T07:24:21;6.23;;;3.97;;
35891;SDS011;21993;42.672;23.296;2023-02-01T07:26:46;5.13;;;3.53;;
35891;SDS011;21993;42.672;23.296;2023-02-01T07:29:12;7.27;;;4.20;;
35891;SDS011;21993;42.672;23.296;2023-02-01T07:31:38;4.50;;;3.67;;
35891;SDS011;21993;42.672;23.296;2023-02-01T07:34:03;5.10;;;3.40;;
35891;SDS011;21993;42.672;23.296;2023-02-01T07:36:29;6.93;;;3.70;;
35891;SDS011;21993;42.672;23.296;2023-02-01T07:38:55;5.40;;;3.67;;
35891;SDS011;21993;42.672;23.296;2023-02-01T07:41:20;8.47;;;3.33;;
35891;SDS011;21993;42.672;23.296;2023-02-01T07:43:46;4.33;;;3.60;;
35891;SDS011;21993;42.672;23.296;2023-02-01T07:46:12;4.17;;;3.23;;
35891;SDS011;21993;42.672;23.296;2023-02-01T07:48:38;8.40;;;3.73;;
35891;SDS011;21993;42.672;23.296;2023-02-01T07:51:13;4.80;;;3.80;;
35891;SDS011;21993;42.672;23.296;2023-02-01T07:53:41;5.10;;;3.50;;
35891;SDS011;21993;42.672;23.296;2023-02-01T07:56:13;6.03;;;3.60;;
35891;SDS011;21993;42.672;23.296;2023-02-01T07:58:42;6.90;;;3.77;;
35891;SDS011;21993;42.672;23.296;2023-02-01T08:01:17;8.03;;;4.47;;
35891;SDS011;21993;42.672;23.296;2023-02-01T08:04:07;6.50;;;4.00;;
35891;SDS011;21993;42.672;23.296;2023-02-01T08:06:35;6.10;;;3.60;;
35891;SDS011;21993;42.672;23.296;2023-02-01T08:09:01;5.43;;;3.53;;
35891;SDS011;21993;42.672;23.296;2023-02-01T08:11:27;6.53;;;3.90;;
35891;SDS011;21993;42.672;23.296;2023-02-01T08:13:53;8.63;;;4.20;;
35891;SDS011;21993;42.672;23.296;2023-02-01T08:16:19;5.27;;;3.50;;
35891;SDS011;21993;42.672;23.296;2023-02-01T08:18:46;7.70;;;3.60;;
35891;SDS011;21993;42.672;23.296;2023-02-01T08:21:16;6.23;;;3.30;;
35891;SDS011;21993;42.672;23.296;2023-02-01T08:23:44;4.17;;;3.40;;
35891;SDS011;21993;42.672;23.296;2023-02-01T08:28:35;6.80;;;3.60;;
35891;SDS011;21993;42.672;23.296;2023-02-01T08:31:06;5.13;;;3.67;;
35891;SDS011;21993;42.672;23.296;2023-02-01T08:33:33;8.80;;;4.20;;
35891;SDS011;21993;42.672;23.296;2023-02-01T08:36:00;6.37;;;3.50;;
35891;SDS011;21993;42.672;23.296;2023-02-01T08:38:26;4.27;;;3.27;;
35891;SDS011;21993;42.672;23.296;2023-02-01T08:40:52;8.23;;;3.70;;
35891;SDS011;21993;42.672;23.296;2023-02-01T08:43:18;6.40;;;3.23;;
35891;SDS011;21993;42.672;23.296;2023-02-01T08:45:44;4.37;;;3.20;;
35891;SDS011;21993;42.672;23.296;2023-02-01T08:48:09;9.27;;;3.40;;
35891;SDS011;21993;42.672;23.296;2023-02-01T08:50:35;7.03;;;3.23;;
35891;SDS011;21993;42.672;23.296;2023-02-01T08:53:00;6.40;;;3.70;;
35891;SDS011;21993;42.672;23.296;2023-02-01T08:55:25;4.13;;;3.47;;
35891;SDS011;21993;42.672;23.296;2023-02-01T08:57:51;6.77;;;3.80;;
35891;SDS011;21993;42.672;23.296;2023-02-01T09:00:17;8.70;;;4.20;;
35891;SDS011;21993;42.672;23.296;2023-02-01T09:02:43;7.13;;;3.57;;
35891;SDS011;21993;42.672;23.296;2023-02-01T09:05:09;7.07;;;4.10;;
35891;SDS011;21993;42.672;23.296;2023-02-01T09:07:35;5.57;;;3.53;;
35891;SDS011;21993;42.672;23.296;2023-02-01T09:10:01;6.33;;;3.70;;
35891;SDS011;21993;42.672;23.296;2023-02-01T09:12:28;8.07;;;3.80;;
35891;SDS011;21993;42.672;23.296;2023-02-01T09:14:55;5.77;;;3.40;;
35891;SDS011;21993;42.672;23.296;2023-02-01T09:17:22;5.87;;;3.10;;
35891;SDS011;21993;42.672;23.296;2023-02-01T09:19:48;7.17;;;3.50;;
35891;SDS011;21993;42.672;23.296;2023-02-01T09:22:14;5.07;;;3.10;;
35891;SDS011;21993;42.672;23.296;2023-02-01T09:24:40;6.83;;;3.27;;
35891;SDS011;21993;42.672;23.296;2023-02-01T09:27:05;5.53;;;3.07;;
35891;SDS011;21993;42.672;23.296;2023-02-01T09:29:31;6.43;;;3.67;;
35891;SDS011;21993;42.672;23.296;2023-02-01T09:31:56;5.13;;;3.30;;
35891;SDS011;21993;42.672;23.296;2023-02-01T09:34:22;3.80;;;2.80;;
35891;SDS011;21993;42.672;23.296;2023-02-01T09:36:47;5.00;;;3.10;;
35891;SDS011;21993;42.672;23.296;2023-02-01T09:39:13;4.30;;;3.13;;
35891;SDS011;21993;42.672;23.296;2023-02-01T09:41:43;6.70;;;3.30;;
35891;SDS011;21993;42.672;23.296;2023-02-01T09:47:14;5.03;;;2.87;;
35891;SDS011;21993;42.672;23.296;2023-02-01T09:50:04;5.93;;;3.13;;
35891;SDS011;21993;42.672;23.296;2023-02-01T09:52:38;2.97;;;2.40;;
35891;SDS011;21993;42.672;23.296;2023-02-01T09:55:13;3.07;;;2.53;;
35891;SDS011;21993;42.672;23.296;2023-02-01T09:57:46;4.83;;;3.27;;
35891;SDS011;21993;42.672;23.296;2023-02-01T10:00:55;4.13;;;2.43;;
35891;SDS011;21993;42.672;23.296;2023-02-01T10:03:26;4.03;;;2.70;;
35891;SDS011;21993;42.672;23.296;2023-02-01T10:11:18;6.57;;;3.13;;
35891;SDS011;21993;42.672;23.296;2023-02-01T10:25:36;10.10;;;3.17;;
35891;SDS011;21993;42.672;23.296;2023-02-01T10:28:04;6.10;;;2.87;;
35891;SDS011;21993;42.672;23.296;2023-02-01T10:30:31;9.63;;;3.00;;
35891;SDS011;21993;42.672;23.296;2023-02-01T10:33:12;3.07;;;2.77;;
35891;SDS011;21993;42.672;23.296;2023-02-01T10:35:42;4.70;;;2.73;;
35891;SDS011;21993;42.672;23.296;2023-02-01T10:38:28;6.63;;;3.13;;
35891;SDS011;21993;42.672;23.296;2023-02-01T10:40:56;5.50;;;2.90;;
35891;SDS011;21993;42.672;23.296;2023-02-01T10:43:28;5.73;;;2.80;;
35891;SDS011;21993;42.672;23.296;2023-02-01T10:45:54;5.63;;;3.50;;
35891;SDS011;21993;42.672;23.296;2023-02-01T10:48:19;7.57;;;2.90;;
35891;SDS011;21993;42.672;23.296;2023-02-01T10:51:03;5.10;;;2.90;;
35891;SDS011;21993;42.672;23.296;2023-02-01T10:56:14;5.40;;;2.90;;
35891;SDS011;21993;42.672;23.296;2023-02-01T10:58:47;2.80;;;2.40;;
35891;SDS011;21993;42.672;23.296;2023-02-01T11:01:17;2.93;;;2.47;;
35891;SDS011;21993;42.672;23.296;2023-02-01T11:06:28;4.97;;;2.70;;
35891;SDS011;21993;42.672;23.296;2023-02-01T11:09:01;5.73;;;2.97;;
35891;SDS011;21993;42.672;23.296;2023-02-01T11:16:51;3.80;;;2.20;;
35891;SDS011;21993;42.672;23.296;2023-02-01T11:19:19;4.23;;;2.97;;
35891;SDS011;21993;42.672;23.296;2023-02-01T11:21:44;4.83;;;2.73;;
35891;SDS011;21993;42.672;23.296;2023-02-01T11:24:22;4.63;;;2.50;;
35891;SDS011;21993;42.672;23.296;2023-02-01T11:26:50;4.23;;;2.20;;
35891;SDS011;21993;42.672;23.296;2023-02-01T11:29:18;4.73;;;2.33;;
35891;SDS011;21993;42.672;23.296;2023-02-01T11:31:47;5.83;;;3.00;;
35891;SDS011;21993;42.672;23.296;2023-02-01T11:36:45;4.83;;;2.90;;
35891;SDS011;21993;42.672;23.296;2023-02-01T11:41:44;5.57;;;2.40;;
35891;SDS011;21993;42.672;23.296;2023-02-01T11:44:34;3.30;;;2.40;;
35891;SDS011;21993;42.672;23.296;2023-02-01T11:47:21;3.90;;;2.37;;
35891;SDS011;21993;42.672;23.296;2023-02-01T11:50:05;3.70;;;2.10;;
35891;SDS011;21993;42.672;23.296;2023-02-01T12:06:47;2.70;;;2.10;;
35891;SDS011;21993;42.672;23.296;2023-02-01T12:09:26;2.80;;;2.10;;
35891;SDS011;21993;42.672;23.296;2023-02-01T12:15:06;5.90;;;2.27;;
35891;SDS011;21993;42.672;23.296;2023-02-01T12:20:39;2.73;;;2.00;;
35891;SDS011;21993;42.672;23.296;2023-02-01T12:37:40;2.80;;;2.30;;
35891;SDS011;21993;42.672;23.296;2023-02-01T12:40:43;4.03;;;2.47;;
35891;SDS011;21993;42.672;23.296;2023-02-01T12:43:16;2.40;;;2.20;;
35891;SDS011;21993;42.672;23.296;2023-02-01T12:48:36;2.40;;;2.20;;
35891;SDS011;21993;42.672;23.296;2023-02-01T12:51:10;3.43;;;2.37;;
35891;SDS011;21993;42.672;23.296;2023-02-01T12:53:47;3.27;;;2.30;;
35891;SDS011;21993;42.672;23.296;2023-02-01T12:56:21;2.53;;;2.33;;
35891;SDS011;21993;42.672;23.296;2023-02-01T12:58:52;3.20;;;2.40;;
35891;SDS011;21993;42.672;23.296;2023-02-01T13:04:14;3.20;;;2.43;;
35891;SDS011;21993;42.672;23.296;2023-02-01T13:06:47;6.90;;;2.63;;
35891;SDS011;21993;42.672;23.296;2023-02-01T13:09:25;4.73;;;2.30;;
35891;SDS011;21993;42.672;23.296;2023-02-01T13:12:02;4.20;;;2.40;;
35891;SDS011;21993;42.672;23.296;2023-02-01T13:14:54;3.07;;;2.23;;
35891;SDS011;21993;42.672;23.296;2023-02-01T13:17:32;2.67;;;2.00;;
35891;SDS011;21993;42.672;23.296;2023-02-01T13:22:39;3.80;;;2.57;;
35891;SDS011;21993;42.672;23.296;2023-02-01T13:28:14;5.80;;;2.50;;
35891;SDS011;21993;42.672;23.296;2023-02-01T13:42:18;2.47;;;2.23;;
35891;SDS011;21993;42.672;23.296;2023-02-01T13:47:34;3.10;;;2.27;;
35891;SDS011;21993;42.672;23.296;2023-02-01T13:50:13;2.47;;;2.10;;
35891;SDS011;21993;42.672;23.296;2023-02-01T13:52:54;3.37;;;2.30;;
35891;SDS011;21993;42.672;23.296;2023-02-01T13:57:48;3.10;;;2.20;;
35891;SDS011;21993;42.672;23.296;2023-02-01T14:00:29;2.37;;;2.17;;
35891;SDS011;21993;42.672;23.296;2023-02-01T14:08:41;3.33;;;2.43;;
35891;SDS011;21993;42.672;23.296;2023-02-01T14:10:59;4.37;;;2.33;;
35891;SDS011;21993;42.672;23.296;2023-02-01T14:19:19;4.40;;;2.70;;
35891;SDS011;21993;42.672;23.296;2023-02-01T14:21:28;4.10;;;2.50;;
35891;SDS011;21993;42.672;23.296;2023-02-01T14:26:27;3.70;;;2.40;;
35891;SDS011;21993;42.672;23.296;2023-02-01T14:34:11;9.03;;;2.73;;
35891;SDS011;21993;42.672;23.296;2023-02-01T14:36:54;8.57;;;3.43;;
35891;SDS011;21993;42.672;23.296;2023-02-01T14:42:13;5.30;;;2.27;;
35891;SDS011;21993;42.672;23.296;2023-02-01T14:44:43;3.37;;;2.33;;
35891;SDS011;21993;42.672;23.296;2023-02-01T14:58:06;3.17;;;2.87;;
35891;SDS011;21993;42.672;23.296;2023-02-01T15:00:56;3.10;;;2.80;;
35891;SDS011;21993;42.672;23.296;2023-02-01T15:03:57;3.53;;;2.93;;
35891;SDS011;21993;42.672;23.296;2023-02-01T15:06:30;5.97;;;2.90;;
35891;SDS011;21993;42.672;23.296;2023-02-01T15:09:15;5.20;;;3.57;;
35891;SDS011;21993;42.672;23.296;2023-02-01T15:12:44;3.87;;;2.67;;
35891;SDS011;21993;42.672;23.296;2023-02-01T15:15:03;6.83;;;3.20;;
35891;SDS011;21993;42.672;23.296;2023-02-01T15:17:39;4.50;;;2.80;;
35891;SDS011;21993;42.672;23.296;2023-02-01T15:20:15;3.03;;;2.43;;
35891;SDS011;21993;42.672;23.296;2023-02-01T15:22:51;4.87;;;2.80;;
35891;SDS011;21993;42.672;23.296;2023-02-01T15:25:22;5.17;;;2.97;;
35891;SDS011;21993;42.672;23.296;2023-02-01T15:27:50;5.83;;;2.80;;
35891;SDS011;21993;42.672;23.296;2023-02-01T15:30:20;5.13;;;3.27;;
35891;SDS011;21993;42.672;23.296;2023-02-01T15:32:46;6.87;;;3.30;;
35891;SDS011;21993;42.672;23.296;2023-02-01T15:41:14;7.17;;;3.30;;
35891;SDS011;21993;42.672;23.296;2023-02-01T15:44:17;9.63;;;3.60;;
35891;SDS011;21993;42.672;23.296;2023-02-01T15:46:45;3.23;;;2.80;;
35891;SDS011;21993;42.672;23.296;2023-02-01T15:49:47;3.43;;;2.70;;
35891;SDS011;21993;42.672;23.296;2023-02-01T15:54:56;4.77;;;2.80;;
35891;SDS011;21993;42.672;23.296;2023-02-01T15:57:28;4.20;;;2.90;;
35891;SDS011;21993;42.672;23.296;2023-02-01T15:59:59;3.80;;;2.97;;
35891;SDS011;21993;42.672;23.296;2023-02-01T16:02:33;3.80;;;3.10;;
35891;SDS011;21993;42.672;23.296;2023-02-01T16:08:04;6.23;;;3.47;;
35891;SDS011;21993;42.672;23.296;2023-02-01T16:10:39;4.37;;;2.70;;
35891;SDS011;21993;42.672;23.296;2023-02-01T16:13:06;4.10;;;2.93;;
35891;SDS011;21993;42.672;23.296;2023-02-01T16:15:32;3.30;;;2.37;;
35891;SDS011;21993;42.672;23.296;2023-02-01T16:17:57;3.90;;;2.90;;
35891;SDS011;21993;42.672;23.296;2023-02-01T16:20:23;5.37;;;2.90;;
35891;SDS011;21993;42.672;23.296;2023-02-01T16:22:48;3.53;;;2.87;;
35891;SDS011;21993;42.672;23.296;2023-02-01T16:25:14;3.53;;;3.13;;
35891;SDS011;21993;42.672;23.296;2023-02-01T16:27:39;5.33;;;3.10;;
35891;SDS011;21993;42.672;23.296;2023-02-01T16:30:05;5.57;;;2.93;;
35891;SDS011;21993;42.672;23.296;2023-02-01T16:32:33;4.00;;;3.43;;
35891;SDS011;21993;42.672;23.296;2023-02-01T16:35:03;7.03;;;3.03;;
35891;SDS011;21993;42.672;23.296;2023-02-01T16:37:30;4.80;;;3.03;;
35891;SDS011;21993;42.672;23.296;2023-02-01T16:39:57;7.43;;;2.80;;
35891;SDS011;21993;42.672;23.296;2023-02-01T16:42:22;5.97;;;3.10;;
35891;SDS011;21993;42.672;23.296;2023-02-01T16:44:48;7.00;;;2.83;;
35891;SDS011;21993;42.672;23.296;2023-02-01T16:47:15;3.07;;;2.77;;
35891;SDS011;21993;42.672;23.296;2023-02-01T16:49:42;7.60;;;4.50;;
35891;SDS011;21993;42.672;23.296;2023-02-01T16:52:11;5.70;;;3.70;;
35891;SDS011;21993;42.672;23.296;2023-02-01T16:54:43;6.33;;;3.77;;
35891;SDS011;21993;42.672;23.296;2023-02-01T16:57:13;5.53;;;4.03;;
35891;SDS011;21993;42.672;23.296;2023-02-01T16:59:40;6.80;;;4.27;;
35891;SDS011;21993;42.672;23.296;2023-02-01T17:02:13;6.80;;;4.20;;
35891;SDS011;21993;42.672;23.296;2023-02-01T17:04:41;7.53;;;4.73;;
35891;SDS011;21993;42.672;23.296;2023-02-01T17:07:09;6.63;;;3.90;;
35891;SDS011;21993;42.672;23.296;2023-02-01T17:09:39;5.93;;;4.00;;
35891;SDS011;21993;42.672;23.296;2023-02-01T17:12:05;7.10;;;4.00;;
35891;SDS011;21993;42.672;23.296;2023-02-01T17:14:31;6.83;;;4.10;;
35891;SDS011;21993;42.672;23.296;2023-02-01T17:17:00;8.80;;;4.17;;
35891;SDS011;21993;42.672;23.296;2023-02-01T17:19:26;5.67;;;3.90;;
35891;SDS011;21993;42.672;23.296;2023-02-01T17:21:53;5.47;;;4.00;;
35891;SDS011;21993;42.672;23.296;2023-02-01T17:24:26;7.17;;;4.67;;
35891;SDS011;21993;42.672;23.296;2023-02-01T17:26:53;8.47;;;4.40;;
35891;SDS011;21993;42.672;23.296;2023-02-01T17:29:19;5.53;;;4.20;;
35891;SDS011;21993;42.672;23.296;2023-02-01T17:31:45;8.80;;;3.90;;
35891;SDS011;21993;42.672;23.296;2023-02-01T17:34:14;7.73;;;3.07;;
35891;SDS011;21993;42.672;23.296;2023-02-01T17:36:41;7.07;;;3.13;;
35891;SDS011;21993;42.672;23.296;2023-02-01T17:39:07;5.67;;;2.83;;
35891;SDS011;21993;42.672;23.296;2023-02-01T17:41:35;3.70;;;3.07;;
35891;SDS011;21993;42.672;23.296;2023-02-01T17:44:01;4.80;;;2.70;;
35891;SDS011;21993;42.672;23.296;2023-02-01T17:46:26;6.77;;;2.80;;
35891;SDS011;21993;42.672;23.296;2023-02-01T17:48:52;5.80;;;3.60;;